Mamfe, Cameroon
Current Conditions -  °F | °C
As of 2:00 PM on Friday 19 Dec 2014 (Local Time) from FKKD Reporting Station
Haze Haze  
Wind Chill: 93°   Ceiling: 1600
Heat Index: 105°   Visibility: 2.5mi
Dew Point: 75°   Wind: 12mph
Humidity: 56%   Direction: 260°W
Pressure: 29.83"   Gusts: NA
Location:  5.77°N, 9.29°E
Report Text: FKKD 191300Z 26010KT 4000 HZ BKN016 BKN300 34/24 Q1010 NOSIG
Loading
Personal Weather Stations






























Interactive Weather Map New forecast layout! Learn more

10-Day Weather Forecast

Advertisements
Track Severe Weather on mobile